createdAt,value
2019-01-09T00:02:18.175Z,101011.43
2019-01-09T00:06:24.266Z,101012.14
2019-01-09T00:10:29.454Z,101004.95
2019-01-09T00:14:34.577Z,101000.76
2019-01-09T00:18:39.722Z,101004.41
2019-01-09T00:22:44.923Z,100997.47
2019-01-09T00:26:50.064Z,100998.41
2019-01-09T00:30:55.229Z,100993.09
2019-01-09T00:35:00.321Z,100998.50
2019-01-09T00:39:06.693Z,100993.82
2019-01-09T00:43:11.846Z,100982.34
2019-01-09T00:47:17.088Z,100989.69
2019-01-09T00:51:23.163Z,100983.83
2019-01-09T00:55:28.334Z,100983.28
2019-01-09T00:59:33.461Z,101000.58
2019-01-09T01:04:11.455Z,100980.53
2019-01-09T01:09:02.164Z,100990.80
2019-01-09T01:13:44.164Z,101006.64
2019-01-09T01:18:13.387Z,101000.75
2019-01-09T01:23:04.895Z,100989.80
2019-01-09T01:27:50.819Z,100994.34
2019-01-09T01:32:17.244Z,100999.42
2019-01-09T01:36:49.656Z,100998.12
2019-01-09T01:41:22.624Z,100996.20
2019-01-09T01:46:02.775Z,101011.29
2019-01-09T01:50:33.894Z,101011.00
2019-01-09T01:54:55.678Z,100997.15
2019-01-09T01:59:21.351Z,101012.14
2019-01-09T02:03:43.309Z,101006.20
2019-01-09T02:08:03.731Z,101014.52
2019-01-09T02:12:46.384Z,101014.11
2019-01-09T02:17:19.131Z,101016.53
2019-01-09T02:21:56.278Z,101019.36
2019-01-09T02:26:44.287Z,101025.95
2019-01-09T02:31:26.017Z,101019.56
2019-01-09T02:35:31.166Z,101033.78
2019-01-09T02:39:36.338Z,101037.50
2019-01-09T02:43:41.419Z,101029.91
2019-01-09T02:47:46.469Z,101040.19
2019-01-09T02:51:51.575Z,101033.09
2019-01-09T02:55:56.725Z,101007.05
2019-01-09T03:00:01.861Z,101018.59
2019-01-09T03:04:07.018Z,101015.66
2019-01-09T03:08:12.177Z,101013.41
2019-01-09T03:12:17.393Z,101011.82
2019-01-09T03:16:22.552Z,101018.62
2019-01-09T03:20:28.111Z,101015.20
2019-01-09T03:24:33.558Z,101024.38
2019-01-09T03:28:38.646Z,101036.53
2019-01-09T03:32:43.821Z,101027.92
2019-01-09T03:36:48.947Z,101037.14
2019-01-09T03:40:54.100Z,101037.05
2019-01-09T03:44:59.685Z,101034.09
2019-01-09T03:49:05.803Z,101033.39
2019-01-09T03:53:10.987Z,101030.65
2019-01-09T03:57:16.372Z,101030.95
2019-01-09T04:01:21.475Z,101025.04
2019-01-09T04:05:26.563Z,101026.31
2019-01-09T04:09:31.755Z,101020.42
2019-01-09T04:13:36.867Z,101025.79
2019-01-09T04:17:41.788Z,101022.55
2019-01-09T04:21:46.839Z,101023.86
2019-01-09T04:25:51.911Z,101023.86
2019-01-09T04:29:56.916Z,101020.81
2019-01-09T04:34:02.004Z,101014.51
2019-01-09T04:38:07.108Z,101009.44
2019-01-09T04:42:12.148Z,101009.87
2019-01-09T04:46:17.155Z,101000.77
2019-01-09T04:50:24.484Z,101004.15
2019-01-09T04:54:30.610Z,100997.02
2019-01-09T04:58:35.621Z,101005.53
2019-01-09T05:02:40.782Z,101012.08
2019-01-09T05:06:45.821Z,101010.73
2019-01-09T05:10:50.943Z,101012.55
2019-01-09T05:14:56.102Z,101009.87
2019-01-09T05:19:01.231Z,101011.80
2019-01-09T05:23:06.462Z,101009.84
2019-01-09T05:27:11.607Z,101003.33
2019-01-09T05:31:17.107Z,101018.41
2019-01-09T05:35:22.289Z,101017.55
2019-01-09T05:39:27.390Z,101008.50
2019-01-09T05:43:32.706Z,101010.73
2019-01-09T05:47:37.884Z,101011.61
2019-01-09T05:51:42.950Z,101004.08
2019-01-09T05:55:47.985Z,101004.56
2019-01-09T05:59:53.128Z,101010.49
2019-01-09T06:03:59.759Z,101011.32
2019-01-09T06:08:06.338Z,101013.58
2019-01-09T06:12:11.454Z,101010.15
2019-01-09T06:16:16.628Z,101004.22
2019-01-09T06:20:22.867Z,101004.25
2019-01-09T06:24:29.711Z,101004.05
2019-01-09T06:28:34.836Z,101016.73
2019-01-09T06:32:39.909Z,101017.23
2019-01-09T06:36:44.956Z,101025.94
2019-01-09T06:40:50.072Z,101025.43
2019-01-09T06:44:55.191Z,101028.48
2019-01-09T06:49:00.186Z,101042.77
2019-01-09T06:53:06.154Z,101044.07
2019-01-09T06:57:18.888Z,101042.45
2019-01-09T07:01:24.051Z,101047.31
2019-01-09T07:05:29.104Z,101048.99
2019-01-09T07:09:34.762Z,101049.02
2019-01-09T07:13:39.934Z,101058.49
2019-01-09T07:17:45.084Z,101062.17
2019-01-09T07:21:50.225Z,101072.12
2019-01-09T07:25:55.294Z,101068.75
2019-01-09T07:30:00.402Z,101066.47
2019-01-09T07:34:06.733Z,101069.64
2019-01-09T07:38:11.811Z,101070.87
2019-01-09T07:42:16.833Z,101086.79
2019-01-09T07:46:22.037Z,101078.88
2019-01-09T07:50:27.073Z,101079.27
2019-01-09T07:54:32.298Z,101085.20
2019-01-09T07:58:37.393Z,101096.45
2019-01-09T08:02:42.515Z,101101.15
2019-01-09T08:06:47.592Z,101095.55
2019-01-09T08:10:52.654Z,101090.69
2019-01-09T08:14:57.698Z,101096.41
2019-01-09T08:19:02.849Z,101102.04
2019-01-09T08:23:08.004Z,101112.45
2019-01-09T08:27:13.399Z,101115.92
2019-01-09T08:31:18.693Z,101127.45
2019-01-09T08:35:23.822Z,101127.45
2019-01-09T08:39:29.605Z,101121.56
2019-01-09T08:43:34.727Z,101135.28
2019-01-09T08:47:39.896Z,101133.57
2019-01-09T08:51:44.927Z,101145.81
2019-01-09T08:55:49.989Z,101147.23
2019-01-09T08:59:55.124Z,101160.06
2019-01-09T09:04:00.294Z,101156.20
2019-01-09T09:08:12.006Z,101171.12
2019-01-09T09:12:12.858Z,101169.75
2019-01-09T09:16:18.001Z,101179.16
2019-01-09T09:20:23.167Z,101180.73
2019-01-09T09:24:28.373Z,101187.55
2019-01-09T09:28:33.707Z,101181.59
2019-01-09T09:32:38.786Z,101199.04
2019-01-09T09:36:43.866Z,101204.81
2019-01-09T09:40:49.027Z,101202.61
2019-01-09T09:44:54.423Z,101214.52
2019-01-09T09:48:59.565Z,101207.70
2019-01-09T09:53:04.913Z,101214.83
2019-01-09T09:57:09.991Z,101212.89
2019-01-09T10:01:15.462Z,101205.48
2019-01-09T10:05:20.994Z,101217.39
2019-01-09T10:09:26.512Z,101213.88
2019-01-09T10:13:31.641Z,101214.55
2019-01-09T10:17:36.796Z,101220.96
2019-01-09T10:21:42.460Z,101212.53
2019-01-09T10:25:47.596Z,101204.10
2019-01-09T10:29:52.746Z,101205.48
2019-01-09T10:33:58.052Z,101203.01
2019-01-09T10:38:03.145Z,101208.69
2019-01-09T10:42:08.490Z,101198.80
2019-01-09T10:46:13.516Z,101197.54
2019-01-09T10:50:19.308Z,101198.41
2019-01-09T10:54:24.741Z,101193.55
2019-01-09T10:58:29.913Z,101195.98
2019-01-09T11:02:35.305Z,101197.23
2019-01-09T11:06:40.377Z,101194.20
2019-01-09T11:10:45.427Z,101198.41
2019-01-09T11:14:50.567Z,101202.44
2019-01-09T11:18:55.760Z,101196.28
2019-01-09T11:23:00.912Z,101206.77
2019-01-09T11:27:06.017Z,101206.13
2019-01-09T11:31:11.162Z,101197.02
2019-01-09T11:35:18.665Z,101196.63
2019-01-09T11:39:24.063Z,101206.61
2019-01-09T11:43:29.238Z,101200.52
2019-01-09T11:47:34.284Z,101195.81
2019-01-09T11:51:39.374Z,101196.83
2019-01-09T11:55:44.357Z,101201.62
2019-01-09T11:59:49.427Z,101196.33
2019-01-09T12:03:54.675Z,101182.81
2019-01-09T12:08:00.017Z,101189.55
2019-01-09T12:12:05.227Z,101194.11
2019-01-09T12:16:10.391Z,101197.84
2019-01-09T12:20:17.598Z,101204.42
2019-01-09T12:24:22.655Z,101181.77
2019-01-09T12:28:27.763Z,101181.77
2019-01-09T12:32:32.936Z,101179.91
2019-01-09T12:36:38.021Z,101180.52
2019-01-09T12:40:43.094Z,101178.09
2019-01-09T12:44:48.365Z,101178.79
2019-01-09T12:48:53.510Z,101183.05
2019-01-09T12:52:59.036Z,101182.59
2019-01-09T12:57:04.128Z,101185.33
2019-01-09T13:01:09.341Z,101177.53
2019-01-09T13:05:14.404Z,101182.47
2019-01-09T13:09:22.244Z,101186.93
2019-01-09T13:13:26.486Z,101187.67
2019-01-09T13:17:31.545Z,101191.22
2019-01-09T13:21:36.675Z,101201.97
2019-01-09T13:25:42.026Z,101193.55
2019-01-09T13:29:47.139Z,101195.22
2019-01-09T13:33:52.189Z,101195.22
2019-01-09T13:37:57.215Z,101212.09
2019-01-09T13:42:02.324Z,101212.09
2019-01-09T13:46:07.408Z,101204.45
2019-01-09T13:50:12.784Z,101216.03
2019-01-09T13:54:17.878Z,101222.86
2019-01-09T13:58:22.973Z,101225.94
2019-01-09T14:02:28.017Z,101226.21
2019-01-09T14:06:33.055Z,101217.64
2019-01-09T14:10:38.155Z,101222.45
2019-01-09T14:14:43.250Z,101228.25
2019-01-09T14:18:55.170Z,101237.00
2019-01-09T14:22:56.007Z,101243.72
2019-01-09T14:27:01.052Z,101256.87
2019-01-09T14:31:06.085Z,101257.20
2019-01-09T14:35:11.243Z,101261.23
2019-01-09T14:39:16.438Z,101260.28
2019-01-09T14:43:21.439Z,101253.87
2019-01-09T14:47:26.602Z,101268.91
2019-01-09T14:53:15.254Z,101271.17
2019-01-09T14:56:41.237Z,101271.74
2019-01-09T15:00:46.384Z,101277.73
2019-01-09T15:04:51.674Z,101283.05
2019-01-09T15:08:56.811Z,101295.00
2019-01-09T15:13:02.158Z,101294.22
2019-01-09T15:17:08.175Z,101307.94
2019-01-09T15:21:13.212Z,101307.47
2019-01-09T15:25:21.409Z,101305.16
2019-01-09T15:29:26.626Z,101303.34
2019-01-09T15:33:31.925Z,101300.53
2019-01-09T15:37:37.008Z,101311.96
2019-01-09T15:41:42.067Z,101305.59
2019-01-09T15:45:47.253Z,101318.70
2019-01-09T15:49:52.360Z,101322.84
2019-01-09T15:53:57.547Z,101316.91
2019-01-09T15:58:02.758Z,101320.39
2019-01-09T16:02:07.949Z,101326.59
2019-01-09T16:06:13.142Z,101339.16
2019-01-09T16:10:18.573Z,101350.95
2019-01-09T16:14:23.729Z,101344.68
2019-01-09T16:18:28.912Z,101354.11
2019-01-09T16:22:34.090Z,101356.13
2019-01-09T16:26:42.313Z,101359.98
2019-01-09T16:31:14.539Z,101357.65
2019-01-09T16:35:20.769Z,101360.33
2019-01-09T16:39:30.762Z,101372.45
2019-01-09T16:43:32.772Z,101372.63
2019-01-09T16:47:37.812Z,101382.55
2019-01-09T16:51:42.908Z,101377.33
2019-01-09T16:55:48.003Z,101390.80
2019-01-09T16:59:53.127Z,101387.83
2019-01-09T17:03:58.257Z,101387.55
2019-01-09T17:08:03.380Z,101395.05
2019-01-09T17:12:08.492Z,101398.02
2019-01-09T17:16:13.889Z,101399.06
2019-01-09T17:20:20.009Z,101389.13
2019-01-09T17:24:25.126Z,101396.55
2019-01-09T17:28:30.249Z,101397.20
2019-01-09T17:32:35.468Z,101408.55
2019-01-09T17:36:40.649Z,101405.11
2019-01-09T17:40:45.758Z,101412.97
2019-01-09T17:44:50.831Z,101425.23
2019-01-09T17:48:56.177Z,101413.19
2019-01-09T17:53:01.405Z,101424.42
2019-01-09T17:57:07.527Z,101429.86
2019-01-09T18:01:12.710Z,101424.95
2019-01-09T18:05:18.081Z,101440.70
2019-01-09T18:09:23.345Z,101435.48
2019-01-09T18:13:28.468Z,101443.86
2019-01-09T18:17:33.572Z,101459.11
2019-01-09T18:21:38.727Z,101473.03
2019-01-09T18:25:43.883Z,101466.05
2019-01-09T18:29:48.950Z,101481.72
2019-01-09T18:34:18.335Z,101473.34
2019-01-09T18:38:46.070Z,101476.16
2019-01-09T18:43:51.009Z,101486.33
2019-01-09T18:48:32.807Z,101484.16
2019-01-09T18:52:51.631Z,101504.16
2019-01-09T18:56:58.719Z,101497.64
2019-01-09T19:01:03.962Z,101507.58
2019-01-09T19:05:10.630Z,101518.73
2019-01-09T19:09:15.694Z,101514.80
2019-01-09T19:13:20.956Z,101524.52
2019-01-09T19:17:26.171Z,101520.17
2019-01-09T19:21:31.251Z,101536.62
2019-01-09T19:25:36.600Z,101537.45
2019-01-09T19:29:41.887Z,101536.56
2019-01-09T19:33:47.280Z,101534.08
2019-01-09T19:37:53.435Z,101534.50
2019-01-09T19:41:58.573Z,101535.02
2019-01-09T19:46:03.872Z,101541.16
2019-01-09T19:50:12.336Z,101536.84
2019-01-09T19:54:18.025Z,101531.94
2019-01-09T19:58:23.258Z,101530.62
2019-01-09T20:02:28.419Z,101537.67
2019-01-09T20:06:33.547Z,101546.40
2019-01-09T20:10:39.135Z,101556.36
2019-01-09T20:14:44.290Z,101559.41
2019-01-09T20:18:50.061Z,101559.39
2019-01-09T20:22:56.059Z,101564.62
2019-01-09T20:27:01.132Z,101570.25
2019-01-09T20:31:07.713Z,101575.48
2019-01-09T20:35:13.296Z,101583.80
2019-01-09T20:39:18.387Z,101584.33
2019-01-09T20:43:24.602Z,101585.19
2019-01-09T20:47:30.761Z,101589.91
2019-01-09T20:51:37.255Z,101596.89
2019-01-09T20:55:44.414Z,101604.29
2019-01-09T20:59:49.505Z,101596.49
2019-01-09T21:03:55.679Z,101613.86
2019-01-09T21:08:02.390Z,101613.52
2019-01-09T21:12:07.709Z,101618.80
2019-01-09T21:16:12.864Z,101618.41
2019-01-09T21:20:18.979Z,101616.67
2019-01-09T21:24:24.126Z,101615.44
2019-01-09T21:28:38.936Z,101618.89
2019-01-09T21:32:44.368Z,101618.98
2019-01-09T21:36:51.636Z,101625.49
2019-01-09T21:40:56.812Z,101638.97
2019-01-09T21:45:04.893Z,101636.00
2019-01-09T21:49:10.238Z,101642.11
2019-01-09T21:53:17.189Z,101641.67
2019-01-09T21:57:24.203Z,101642.97
2019-01-09T22:01:29.578Z,101648.64
2019-01-09T22:05:34.955Z,101643.56
2019-01-09T22:09:40.037Z,101647.55
2019-01-09T22:13:45.954Z,101658.38
2019-01-09T22:17:52.122Z,101664.44
2019-01-09T22:21:58.217Z,101671.02
2019-01-09T22:26:04.611Z,101658.44
2019-01-09T22:30:56.724Z,101668.44
2019-01-09T22:35:04.663Z,101663.28
2019-01-09T22:39:10.898Z,101670.78
2019-01-09T22:43:29.111Z,101674.72
2019-01-09T22:47:35.744Z,101678.14
2019-01-09T22:51:40.831Z,101689.41
2019-01-09T22:55:45.876Z,101685.92
2019-01-09T22:59:50.916Z,101684.26
2019-01-09T23:03:56.544Z,101683.41
2019-01-09T23:08:01.620Z,101674.33
2019-01-09T23:12:06.759Z,101686.86
2019-01-09T23:16:12.873Z,101692.11
2019-01-09T23:20:19.002Z,101689.94
2019-01-09T23:24:24.166Z,101692.09
2019-01-09T23:28:29.310Z,101702.92
2019-01-09T23:32:34.495Z,101698.11
2019-01-09T23:36:41.990Z,101709.42
2019-01-09T23:40:47.175Z,101702.45
2019-01-09T23:44:52.349Z,101703.77
2019-01-09T23:48:59.799Z,101715.02
2019-01-09T23:53:04.895Z,101720.72
2019-01-09T23:57:10.013Z,101723.28
